Latest Weather Observations for Devonport Airport

IDT60801

Issued at 11:21 pm EST Friday 16 April 2021 (issued every 10 minutes, with the page automatically refreshed every 10 minutes)

About weather observations | Map of weather stations | Latest weather observations for TAS | Other Formats
Station Details ID: 091126 Name: DEVONPORT AIRPORT Lat: -41.17 Lon: 146.43 Height: 8.0 m
Data from the previous 72 hours. | See also: Recent months at Devonport Airport
Date/Time
EST
Temp
°C
App
Temp
°C
Dew
Point
°C
Rel
Hum
%
Delta-T
°C
Wind Press
QNH
hPa
Press
MSL
hPa
Rain since
9am
mm
Dir  Spd
km/h
Gust
km/h
Spd
kts
Gust
kts
16/11:00pm 9.4 4.1 5.0 74 2.0 W 22 28 12 15 1021.6 1021.6 0.0
16/10:30pm 9.7 5.4 5.1 73 2.1 W 17 22 9 12 1021.9 1021.9 0.0
16/10:00pm 10.3 5.5 5.5 72 2.2 W 20 28 11 15 1022.0 1022.0 0.0
16/09:30pm 9.2 4.5 5.2 76 1.8 W 19 20 10 11 1022.0 1022.0 0.0
16/09:00pm 9.6 4.5 5.8 77 1.7 W 22 28 12 15 1022.1 1022.1 0.0
16/08:30pm 10.1 4.6 5.9 75 1.9 W 24 30 13 16 1022.1 1022.1 0.0
16/08:00pm 10.3 4.8 5.9 74 2.0 W 24 35 13 19 1022.1 1022.1 0.0
16/07:30pm 9.3 4.9 4.7 73 2.0 W 17 22 9 12 1022.0 1022.0 0.0
16/07:00pm 8.6 4.8 4.0 73 2.0 WSW 13 17 7 9 1022.0 1022.0 0.0
16/06:30pm 9.7 5.3 4.5 70 2.3 W 17 20 9 11 1021.7 1021.7 0.0
16/06:00pm 10.3 5.5 4.9 69 2.4 W 19 24 10 13 1021.3 1021.3 0.0
16/05:30pm 11.7 5.2 4.9 63 3.1 W 28 35 15 19 1020.8 1020.8 0.0
16/05:00pm 12.9 7.6 4.8 58 3.7 W 22 30 12 16 1020.6 1020.5 0.0
16/04:30pm 13.7 7.1 4.0 52 4.4 W 28 39 15 21 1020.4 1020.3 0.0
16/04:00pm 14.3 7.8 4.6 52 4.5 WSW 28 35 15 19 1020.4 1020.3 0.0
16/03:30pm 14.9 8.5 5.1 52 4.6 WSW 28 33 15 18 1020.4 1020.3 0.0
16/03:00pm 15.3 10.0 5.2 51 4.8 W 22 28 12 15 1020.3 1020.2 0.0
16/02:30pm 16.0 11.0 6.4 53 4.7 WNW 22 28 12 15 1020.2 1020.1 0.0
16/02:00pm 15.8 10.7 6.0 52 4.7 W 22 33 12 18 1020.2 1020.1 0.0
16/01:30pm 15.4 12.1 4.8 49 5.0 WSW 11 22 6 12 1020.3 1020.2 0.0
16/01:00pm 14.7 10.6 6.0 56 4.2 NNW 17 22 9 12 1020.5 1020.4 0.0
16/12:30pm 14.3 10.6 6.4 59 3.8 NNW 15 20 8 11 1021.0 1021.0 0.0
16/12:00pm 13.2 8.9 5.4 59 3.6 NW 17 22 9 12 1021.3 1021.3 0.0
16/11:30am 12.7 8.7 4.7 58 3.7 NW 15 20 8 11 1021.7 1021.7 0.0
16/11:00am 12.9 8.5 4.8 58 3.7 NW 17 20 9 11 1021.7 1021.7 0.0
16/10:30am 12.5 7.9 5.7 63 3.2 NW 19 26 10 14 1021.5 1021.5 0.0
16/10:00am 12.2 7.4 4.7 60 3.4 W 19 24 10 13 1021.5 1021.5 0.0
16/09:30am 11.6 6.5 4.1 60 3.4 WSW 20 24 11 13 1021.5 1021.5 0.0
16/09:00am 10.5 6.3 4.0 64 2.9 WSW 15 19 8 10 1021.3 1021.3 0.8
16/08:30am 9.9 7.3 5.9 76 1.8 SW 9 13 5 7 1020.9 1020.9 0.8
16/08:00am 7.4 4.6 5.0 85 1.1 S 9 9 5 5 1020.7 1020.6 0.8
16/07:30am 6.2 3.0 3.2 81 1.3 WSW 9 11 5 6 1020.0 1019.9 0.8
16/07:00am 4.2 0.9 2.2 87 0.8 SSE 9 11 5 6 1019.7 1019.6 0.8
16/06:30am 4.9 0.1 2.4 84 1.0 W 17 20 9 11 1019.0 1018.9 0.8
16/06:00am 6.8 3.8 3.9 82 1.2 W 9 11 5 6 1018.7 1018.6 0.8
16/05:30am 4.6 2.7 2.9 89 0.7 W 2 6 1 3 1018.3 1018.2 0.8
16/05:00am 4.6 0.6 2.9 89 0.7 WSW 13 17 7 9 1017.8 1017.8 0.8
16/04:30am 6.0 2.2 3.8 86 0.9 WSW 13 17 7 9 1017.5 1017.5 0.8
16/04:00am 5.7 1.0 3.4 85 1.0 WSW 17 19 9 10 1017.4 1017.4 0.8
16/03:30am 6.6 2.8 3.9 83 1.2 WSW 13 17 7 9 1017.3 1017.3 0.8
16/03:00am 7.0 2.6 4.5 84 1.1 W 17 22 9 12 1017.0 1017.0 0.8
16/02:30am 6.5 1.4 4.0 84 1.1 W 20 24 11 13 1016.8 1016.8 0.8
16/02:00am 5.8 0.7 3.0 82 1.2 W 19 20 10 11 1016.7 1016.7 0.8
16/01:30am 5.4 0.7 2.9 84 1.0 WSW 17 20 9 11 1016.5 1016.5 0.8
16/01:00am 3.9 -1.1 1.4 84 1.0 WSW 17 20 9 11 1016.4 1016.4 0.8
16/12:30am 7.7 3.7 3.0 72 2.0 SW 13 20 7 11 1015.9 1015.9 0.8
16/12:00am 6.8 2.1 3.4 79 1.4 SW 17 22 9 12 1015.4 1015.4 0.8
 
Date/Time
EST
Temp
°C
App
Temp
°C
Dew
Point
°C
Rel
Hum
%
Delta-T
°C
Wind Press
QNH
hPa
Press
MSL
hPa
Rain since
9am
mm
Dir  Spd
km/h
Gust
km/h
Spd
kts
Gust
kts
15/11:30pm 6.5 3.3 2.8 77 1.5 WSW 9 26 5 14 1015.3 1015.3 0.8
15/11:00pm 5.6 2.3 2.6 81 1.2 SW 9 13 5 7 1015.2 1015.2 0.8
15/10:30pm 4.4 2.0 2.4 87 0.8 SSE 4 9 2 5 1014.8 1014.8 0.8
15/10:00pm 4.9 2.5 1.9 81 1.2 WSW 4 7 2 4 1014.2 1014.2 0.8
15/09:30pm 5.7 2.4 2.5 80 1.3 WSW 9 13 5 7 1013.8 1013.8 0.8
15/09:00pm 5.9 2.6 2.2 77 1.5 W 9 11 5 6 1013.4 1013.4 0.8
15/08:30pm 7.7 2.7 3.4 74 1.8 W 19 20 10 11 1012.9 1012.9 0.8
15/08:00pm 8.4 3.7 3.3 70 2.2 WSW 17 22 9 12 1012.3 1012.3 0.8
15/07:30pm 8.6 3.3 3.2 69 2.3 WSW 20 24 11 13 1011.9 1011.9 0.8
15/07:00pm 9.2 4.1 4.0 70 2.3 WSW 20 28 11 15 1011.3 1011.3 0.8
15/06:30pm 9.4 4.3 4.0 69 2.4 WSW 20 28 11 15 1010.7 1010.7 0.8
15/06:00pm 10.0 5.0 4.4 68 2.5 W 20 30 11 16 1010.0 1010.0 0.8
15/05:30pm 11.1 5.0 4.6 64 2.9 W 26 33 14 18 1009.6 1009.6 0.8
15/05:00pm 12.2 5.6 4.2 58 3.6 WSW 28 44 15 24 1008.7 1008.7 0.8
15/04:41pm 12.2 4.8 4.2 58 3.6 WSW 32 50 17 27 1008.6 1008.6 0.8
15/04:30pm 13.0 4.0 4.4 56 3.9 W 41 50 22 27 1008.2 1008.2 0.8
15/04:00pm 13.3 4.6 3.9 53 4.3 WSW 39 57 21 31 1008.0 1008.0 0.8
15/03:30pm 13.1 4.1 4.3 55 4.0 WSW 41 59 22 32 1007.6 1007.6 0.8
15/03:13pm 14.3 5.0 4.9 53 4.4 WSW 43 61 23 33 1007.2 1007.2 0.8
15/03:00pm 16.2 6.8 4.6 46 5.5 W 43 57 23 31 1006.7 1006.7 0.8
15/02:30pm 16.4 8.1 4.4 45 5.6 W 37 48 20 26 1006.2 1006.2 0.8
15/02:00pm 16.1 8.2 4.2 45 5.6 W 35 48 19 26 1006.1 1006.1 0.8
15/01:38pm 15.5 7.2 4.3 47 5.2 WSW 37 59 20 32 1006.2 1006.2 0.8
15/01:30pm 15.4 6.5 5.3 51 4.8 WSW 41 56 22 30 1006.3 1006.3 0.8
15/01:00pm 15.5 7.5 7.5 59 4.0 WSW 39 61 21 33 1006.4 1006.4 0.8
15/12:58pm 15.6 8.3 7.1 57 4.2 WSW 35 54 19 29 1006.1 1006.1 0.8
15/12:30pm 15.5 8.9 8.5 63 3.5 W 33 48 18 26 1006.0 1006.0 0.8
15/12:29pm 15.9 9.4 9.1 64 3.5 W 33 44 18 24 1006.0 1006.0 0.8
15/12:00pm 15.7 9.5 12.6 82 1.7 WNW 37 44 20 24 1006.0 1006.0 0.8
15/11:30am 14.4 8.1 12.3 87 1.1 WNW 37 48 20 26 1006.1 1006.1 0.8
15/11:00am 13.7 9.2 12.6 93 0.6 WNW 28 35 15 19 1006.3 1006.3 0.8
15/10:30am 13.3 5.5 11.7 90 0.9 WNW 44 57 24 31 1006.7 1006.7 0.4
15/10:00am 15.6 8.3 11.6 77 2.2 WNW 41 50 22 27 1006.6 1006.6 0.0
15/09:30am 14.8 8.3 11.8 82 1.6 WNW 37 46 20 25 1006.6 1006.6 0.0
15/09:00am 13.9 8.1 10.9 82 1.6 WNW 32 39 17 21 1006.9 1006.9 1.2
15/08:30am 13.6 7.3 9.8 78 2.0 WNW 33 41 18 22 1007.2 1007.2 1.2
15/08:00am 13.3 7.2 9.7 79 1.8 WNW 32 41 17 22 1007.3 1007.3 1.2
15/07:30am 13.3 7.4 10.5 83 1.5 WNW 32 39 17 21 1007.1 1007.1 1.2
15/07:00am 12.7 6.8 11.1 90 0.8 WNW 33 43 18 23 1006.9 1006.9 1.2
15/06:30am 12.6 5.8 10.7 88 1.0 WNW 37 46 20 25 1006.7 1006.7 1.2
15/06:00am 12.9 5.1 11.0 88 1.0 WNW 43 56 23 30 1006.7 1006.7 1.2
15/05:30am 12.6 5.3 10.3 86 1.2 WNW 39 50 21 27 1006.7 1006.7 1.2
15/05:00am 12.3 5.4 10.2 87 1.1 WNW 37 50 20 27 1006.6 1006.6 1.2
15/04:30am 12.7 5.3 9.9 83 1.4 WNW 39 48 21 26 1006.8 1006.8 1.2
15/04:00am 12.4 5.6 9.4 82 1.5 WNW 35 46 19 25 1006.6 1006.6 1.2
15/03:30am 12.2 5.8 9.2 82 1.5 WNW 33 43 18 23 1007.0 1007.0 1.2
15/03:00am 12.4 6.1 9.6 83 1.4 WNW 33 41 18 22 1007.2 1007.2 1.2
15/02:30am 12.7 6.3 9.3 80 1.7 WNW 33 43 18 23 1007.6 1007.6 1.2
15/02:00am 12.2 5.9 8.9 80 1.7 W 32 41 17 22 1007.6 1007.6 1.2
15/01:30am 12.2 5.3 8.7 79 1.7 WNW 35 44 19 24 1007.7 1007.7 1.2
15/01:00am 12.0 6.3 8.5 79 1.7 W 28 37 15 20 1007.8 1007.8 1.2
15/12:30am 12.6 6.1 8.1 74 2.2 W 32 39 17 21 1007.7 1007.7 1.2
15/12:00am 12.1 5.4 8.0 76 2.0 WNW 33 43 18 23 1007.5 1007.5 1.2
 
Date/Time
EST
Temp
°C
App
Temp
°C
Dew
Point
°C
Rel
Hum
%
Delta-T
°C
Wind Press
QNH
hPa
Press
MSL
hPa
Rain since
9am
mm
Dir  Spd
km/h
Gust
km/h
Spd
kts
Gust
kts
14/11:30pm 12.2 4.9 7.3 72 2.4 W 35 43 19 23 1007.7 1007.7 1.2
14/11:00pm 12.0 4.6 6.9 71 2.4 W 35 43 19 23 1007.4 1007.4 1.2
14/10:30pm 11.8 4.4 6.9 72 2.3 W 35 43 19 23 1007.5 1007.5 1.2
14/10:00pm 11.8 4.4 6.9 72 2.3 W 35 46 19 25 1007.4 1007.4 1.2
14/09:30pm 11.8 5.4 7.1 73 2.3 W 30 39 16 21 1007.2 1007.2 1.2
14/09:00pm 11.5 5.7 6.2 70 2.5 W 26 35 14 19 1007.0 1007.0 1.2
14/08:30pm 12.1 5.6 6.4 68 2.7 W 30 41 16 22 1006.7 1006.7 1.2
14/08:03pm 12.0 4.8 6.1 67 2.8 W 33 52 18 28 1006.7 1006.7 1.2
14/08:00pm 12.2 4.7 6.3 67 2.8 W 35 52 19 28 1006.7 1006.7 1.2
14/07:30pm 12.3 4.9 6.8 69 2.6 W 35 44 19 24 1006.5 1006.5 1.2
14/07:00pm 12.7 5.6 6.5 66 3.0 W 33 44 18 24 1006.4 1006.4 1.2
14/06:36pm 13.3 5.5 6.6 64 3.2 W 37 56 20 30 1005.8 1005.8 1.2
14/06:30pm 13.4 5.2 6.5 63 3.3 W 39 46 21 25 1005.8 1005.8 1.2
14/06:00pm 13.8 6.9 6.4 61 3.6 W 32 43 17 23 1005.3 1005.3 1.2
14/05:31pm 14.3 6.8 7.8 65 3.2 W 37 56 20 30 1005.0 1005.0 1.2
14/05:30pm 14.3 6.4 8.0 66 3.1 W 39 56 21 30 1005.0 1005.0 1.2
14/05:00pm 14.9 7.3 7.5 61 3.7 W 37 50 20 27 1004.1 1004.1 1.2
14/04:33pm 15.6 7.4 8.4 62 3.6 W 41 59 22 32 1003.6 1003.6 1.2
14/04:30pm 15.7 8.0 8.7 63 3.6 W 39 56 21 30 1003.6 1003.6 1.2
14/04:00pm 16.5 8.3 9.7 64 3.6 W 43 59 23 32 1003.3 1003.3 1.2
14/03:52pm 16.9 9.7 9.3 61 3.9 W 37 59 20 32 1003.0 1003.0 1.2
14/03:30pm 16.6 8.6 9.1 61 3.9 W 41 54 22 29 1002.7 1002.7 1.2
14/03:00pm 17.8 10.7 10.9 64 3.7 W 39 50 21 27 1002.3 1002.3 1.2
14/02:38pm 17.2 9.0 10.3 64 3.7 WNW 44 63 24 34 1001.8 1001.8 1.2
14/02:30pm 17.1 9.6 10.9 67 3.3 WNW 41 54 22 29 1001.9 1001.9 1.2
14/02:16pm 16.5 9.0 11.0 70 2.9 WNW 41 61 22 33 1001.8 1001.8 1.2
14/02:02pm 16.8 10.7 12.9 78 2.2 WNW 37 48 20 26 1001.8 1001.8 1.2
14/02:00pm 17.2 11.1 12.9 76 2.4 W 37 48 20 26 1001.8 1001.8 1.2
14/01:53pm 16.4 9.1 12.9 80 1.9 WNW 43 61 23 33 1001.8 1001.8 1.2
14/01:50pm 15.5 8.0 12.8 84 1.5 WNW 44 61 24 33 1001.9 1001.9 1.2
14/01:45pm 15.7 8.3 12.3 80 1.9 WNW 43 61 23 33 1001.8 1001.8 1.2
14/01:30pm 16.9 10.0 11.6 71 2.9 WNW 39 48 21 26 1001.7 1001.7 1.2
14/01:26pm 16.7 10.1 11.4 71 2.9 WNW 37 48 20 26 1001.7 1001.7 1.2
14/01:05pm 17.1 10.6 10.2 64 3.7 W 35 44 19 24 1001.8 1001.8 1.2
14/01:00pm 17.9 11.1 10.5 62 4.0 WNW 37 46 20 25 1001.7 1001.7 1.2
14/12:30pm 17.3 10.9 12.0 71 2.9 WNW 37 44 20 24 1002.0 1002.0 1.2
14/12:00pm 16.9 10.8 13.0 78 2.2 WNW 37 46 20 25 1001.8 1001.8 1.2
14/11:30am 15.3 8.1 13.7 90 0.9 WNW 44 54 24 29 1001.8 1001.8 1.2
14/11:00am 14.2 7.8 13.1 93 0.6 WNW 39 50 21 27 1001.8 1001.8 1.2
14/10:38am 15.0 7.8 13.0 88 1.1 WNW 43 52 23 28 1001.6 1001.6 0.6
14/10:30am 16.1 9.5 13.6 85 1.4 WNW 41 50 22 27 1001.6 1001.6 0.6
14/10:00am 14.3 7.1 13.0 92 0.7 WNW 43 50 23 27 1001.6 1001.6 0.6
14/09:52am 14.4 7.0 13.1 92 0.7 WNW 44 59 24 32 1001.7 1001.7 0.6
14/09:32am 14.8 7.8 13.8 94 0.6 WNW 43 54 23 29 1002.1 1002.1 0.2
14/09:31am 14.9 7.9 13.8 93 0.6 WNW 43 54 23 29 1002.1 1002.1 0.2
14/09:30am 14.8 8.1 13.5 92 0.7 WNW 41 54 22 29 1002.0 1002.0 0.2
14/09:00am 15.7 9.0 13.4 86 1.3 WNW 41 57 22 31 1002.1 1002.1 2.0
14/08:56am 15.7 10.1 13.4 86 1.3 WNW 35 57 19 31 1002.1 1002.1 2.0
14/08:30am 14.6 9.8 13.0 90 0.9 W 30 39 16 21 1002.0 1002.0 2.0
14/08:00am 15.6 9.9 12.9 84 1.5 WNW 35 44 19 24 1001.8 1001.8 2.0
14/07:30am 14.5 9.3 12.9 90 0.9 WNW 32 39 17 21 1001.9 1001.9 2.0
14/07:00am 13.7 9.8 12.1 90 0.9 W 24 33 13 18 1001.9 1001.9 2.0
14/06:30am 13.5 8.7 11.7 89 1.0 W 28 37 15 20 1001.8 1001.8 2.0
14/06:00am 14.5 6.4 12.0 85 1.4 WNW 46 56 25 30 1001.5 1001.5 2.0
14/05:58am 14.6 6.5 12.1 85 1.4 WNW 46 57 25 31 1001.4 1001.4 2.0
14/05:30am 14.8 8.2 13.7 93 0.6 WNW 41 52 22 28 1001.2 1001.2 2.0
14/05:18am 14.9 8.3 13.6 92 0.7 WNW 41 54 22 29 1001.2 1001.2 2.0
14/05:00am 14.6 7.4 13.1 91 0.8 WNW 43 56 23 30 1001.1 1001.1 2.0
14/04:37am 15.4 8.3 13.4 88 1.1 WNW 43 61 23 33 1001.2 1001.2 2.0
14/04:30am 15.5 7.9 13.7 89 1.0 WNW 46 57 25 31 1001.2 1001.2 2.0
14/04:15am 15.2 6.9 13.7 91 0.8 WNW 50 69 27 37 1001.3 1001.3 2.0
14/04:02am 14.7 4.1 13.1 90 0.9 WNW 61 80 33 43 1001.2 1001.2 2.0
14/04:01am 14.7 4.5 13.1 90 0.9 NW 59 80 32 43 1001.2 1001.2 2.0
14/04:00am 14.9 4.7 13.3 90 0.9 NW 59 80 32 43 1001.1 1001.1 2.0
14/03:58am 15.2 5.2 12.7 85 1.4 NW 57 80 31 43 1001.0 1001.0 2.0
14/03:55am 17.0 7.2 11.5 70 3.0 NW 54 80 29 43 1000.7 1000.7 2.0
14/03:30am 16.4 8.3 12.0 75 2.4 NNW 46 57 25 31 1001.2 1001.2 2.0
14/03:00am 15.9 10.3 13.2 84 1.5 N 35 48 19 26 1002.0 1002.0 2.0
14/02:30am 15.2 10.1 13.1 87 1.2 NNW 32 41 17 22 1003.0 1003.0 2.0
14/02:00am 14.7 7.9 11.8 83 1.6 NW 39 50 21 27 1003.6 1003.6 2.0
14/01:57am 14.8 7.6 11.9 83 1.6 NW 41 56 22 30 1003.7 1003.7 2.0
14/01:46am 14.4 6.0 12.3 87 1.1 NW 48 67 26 36 1004.2 1004.2 2.0
14/01:30am 14.5 6.7 14.0 97 0.3 NW 48 65 26 35 1004.6 1004.6 1.8
14/01:25am 14.4 6.8 13.6 95 0.4 NW 46 65 25 35 1004.5 1004.5 1.6
14/01:13am 14.7 6.3 13.4 92 0.7 NW 50 61 27 33 1004.7 1004.7 1.2
14/01:03am 14.9 7.1 12.9 88 1.1 NW 46 65 25 35 1004.9 1004.9 0.8
14/01:00am 14.8 6.1 12.7 87 1.2 NW 50 65 27 35 1004.9 1004.9 0.6
14/12:39am 15.3 6.8 13.3 88 1.1 NW 50 69 27 37 1005.2 1005.2 0.4
14/12:30am 15.2 6.1 13.6 90 0.9 NNW 54 70 29 38 1005.4 1005.4 0.4
14/12:00am 15.9 8.9 13.6 86 1.3 NNW 43 65 23 35 1005.5 1005.5 0.4
 
Date/Time
EST
Temp
°C
App
Temp
°C
Dew
Point
°C
Rel
Hum
%
Delta-T
°C
Wind Press
QNH
hPa
Press
MSL
hPa
Rain since
9am
mm
Dir  Spd
km/h
Gust
km/h
Spd
kts
Gust
kts
13/11:52pm 15.7 8.3 13.0 84 1.5 NNW 44 65 24 35 1005.7 1005.7 0.4
13/11:30pm 16.4 9.7 13.5 83 1.6 N 41 52 22 28 1006.0 1006.0 0.0

Other formats

Comma delimited format used in spreadsheet applications
http://www.bom.gov.au/fwo/IDT60801/IDT60801.95960.axf

JavaScript Object Notation format (JSON) in row-major order
http://www.bom.gov.au/fwo/IDT60801/IDT60801.95960.json

Data quality

Most of these data are generated automatically and are frequently updated. Quality checks on data are not normally performed. It is possible for incorrect values to appear. Refer to information at About Latest Weather Observations and please check the disclaimer before using these data.